Time;durP1;ratioP1;P1;durP2;ratioP2;P2;SDS_P1;SDS_P2;PMS_P1;PMS_P2;Temp;Humidity;BMP_temperature;BMP_pressure;BME280_temperature;BME280_humidity;BME280_pressure;Samples;Min_cycle;Max_cycle;Signal;HPM_P1;HPM_P2
2022/11/27 04:02:50;;;;;;;;;;;5.20;99.90;;;;;;5085303;23;20462;-65
2022/11/27 04:05:17;;;;;;;;;;;5.20;99.90;;;;;;4982485;28;19930;-64
2022/11/27 04:07:44;;;;;;;;;;;5.20;99.90;;;;;;4990823;28;19953;-65
2022/11/27 04:10:11;;;;;;;;;;;5.20;99.90;;;;;;4987111;28;19961;-65
2022/11/27 04:12:37;;;;;;;;;;;5.20;99.90;;;;;;4973926;28;20046;-65
2022/11/27 04:15:05;;;;;;;;;;;5.20;99.90;;;;;;4963153;28;19933;-65
2022/11/27 04:17:32;;;;;;;;;;;5.30;99.90;;;;;;4966986;28;19926;-65
2022/11/27 04:20:00;;;;;;;;;;;5.20;99.90;;;;;;4976130;28;20021;-64
2022/11/27 04:22:26;;;;;;;;;;;5.30;99.90;;;;;;4965951;28;20404;-65
2022/11/27 04:24:53;;;;;;;;;;;5.30;99.90;;;;;;4963043;28;20004;-65
2022/11/27 04:27:20;;;;;;;;;;;5.30;99.90;;;;;;4964125;28;19982;-65
2022/11/27 04:29:46;;;;;;;;;;;5.30;99.90;;;;;;4974674;28;19981;-65
2022/11/27 04:32:13;;;;;;;;;;;5.30;99.90;;;;;;4974284;28;20368;-64
2022/11/27 04:34:39;;;;;;;;;;;5.30;99.90;;;;;;4966452;28;20317;-65
2022/11/27 04:37:08;;;;;;;;;;;5.30;99.90;;;;;;4974848;28;19981;-65
2022/11/27 04:39:34;;;;;;;;;;;5.30;99.90;;;;;;4974649;28;19925;-66
2022/11/27 04:42:01;;;;;;;;;;;5.30;99.90;;;;;;4968127;28;19938;-64
2022/11/27 04:44:28;;;;;;;;;;;5.30;99.90;;;;;;4965853;28;19926;-65
2022/11/27 04:46:55;;;;;;;;;;;5.40;99.90;;;;;;4968917;28;19926;-65
2022/11/27 04:49:21;;;;;;;;;;;5.40;99.90;;;;;;4958068;28;19927;-65
2022/11/27 04:51:48;;;;;;;;;;;5.40;99.90;;;;;;4965788;28;19933;-65
2022/11/27 04:54:16;;;;;;;;;;;5.40;99.90;;;;;;4974278;28;19926;-65
2022/11/27 04:56:43;;;;;;;;;;;5.40;99.90;;;;;;4967757;28;19926;-65
2022/11/27 04:59:10;;;;;;;;;;;5.40;99.90;;;;;;4960249;28;20451;-65
2022/11/27 05:01:36;;;;;;;;;;;5.40;99.90;;;;;;4973249;28;19938;-65
2022/11/27 05:04:03;;;;;;;;;;;5.40;99.90;;;;;;4968647;28;20008;-65
2022/11/27 05:06:30;;;;;;;;;;;5.50;99.90;;;;;;4958551;28;19926;-65
2022/11/27 05:09:00;;;;;;;;;;;5.40;99.90;;;;;;4967969;28;19930;-65
2022/11/27 05:11:29;;;;;;;;;;;5.40;99.90;;;;;;4973869;28;20371;-63
2022/11/27 05:16:36;;;;;;;;;;;5.40;99.90;;;;;;4954705;28;19950;-64
2022/11/27 05:19:03;;;;;;;;;;;5.40;99.90;;;;;;4952412;29;19927;-64
2022/11/27 05:21:30;;;;;;;;;;;5.50;99.90;;;;;;4951991;29;20373;-64
2022/11/27 05:23:56;;;;;;;;;;;5.50;99.90;;;;;;4945221;28;20375;-64
2022/11/27 05:26:23;;;;;;;;;;;5.50;99.90;;;;;;4934416;29;19999;-65
2022/11/27 05:28:51;;;;;;;;;;;5.50;99.90;;;;;;4927880;29;19927;-63
2022/11/27 05:31:17;;;;;;;;;;;5.50;99.90;;;;;;4933809;29;19962;-65
2022/11/27 05:33:44;;;;;;;;;;;5.50;99.90;;;;;;4948636;28;19931;-62
2022/11/27 05:36:11;;;;;;;;;;;5.50;99.90;;;;;;4948126;29;19963;-64
2022/11/27 05:38:37;;;;;;;;;;;5.50;99.90;;;;;;4929332;29;19973;-64
2022/11/27 05:41:04;;;;;;;;;;;5.50;99.90;;;;;;4935031;29;19955;-65
2022/11/27 05:43:30;;;;;;;;;;;5.50;99.90;;;;;;4946304;28;20009;-63
2022/11/27 05:45:58;;;;;;;;;;;5.50;99.90;;;;;;4946818;29;20014;-64
2022/11/27 05:48:25;;;;;;;;;;;5.50;99.90;;;;;;4929401;29;19970;-64
2022/11/27 05:50:51;;;;;;;;;;;5.50;99.90;;;;;;4939905;29;19962;-65
2022/11/27 05:53:18;;;;;;;;;;;5.60;99.90;;;;;;4929877;29;19990;-64
2022/11/27 05:55:45;;;;;;;;;;;5.60;99.90;;;;;;4949922;29;19934;-64
2022/11/27 05:58:12;;;;;;;;;;;5.70;99.90;;;;;;4946274;29;19931;-63
2022/11/27 06:00:38;;;;;;;;;;;5.70;99.90;;;;;;4930823;29;20365;-65
2022/11/27 06:03:07;;;;;;;;;;;5.70;99.90;;;;;;4931607;29;19926;-64
2022/11/27 06:05:33;;;;;;;;;;;5.60;99.90;;;;;;4932840;29;19930;-64
2022/11/27 06:08:00;;;;;;;;;;;5.70;99.90;;;;;;4933180;29;19931;-63
2022/11/27 06:10:27;;;;;;;;;;;5.70;99.90;;;;;;4932907;29;19950;-64
2022/11/27 06:12:55;;;;;;;;;;;5.70;99.90;;;;;;4948468;29;19930;-64
2022/11/27 06:15:21;;;;;;;;;;;5.70;99.90;;;;;;4932927;29;19926;-65
2022/11/27 06:17:48;;;;;;;;;;;5.80;99.90;;;;;;4948640;29;19927;-63
2022/11/27 06:20:19;;;;;;;;;;;5.90;99.90;;;;;;4953303;28;19927;-63
2022/11/27 06:22:45;;;;;;;;;;;5.90;99.90;;;;;;4931599;29;19939;-65
2022/11/27 06:25:12;;;;;;;;;;;5.90;99.90;;;;;;4934191;29;19927;-64
2022/11/27 06:27:39;;;;;;;;;;;6.00;99.90;;;;;;4933272;29;20025;-64
2022/11/27 06:30:06;;;;;;;;;;;6.10;99.90;;;;;;4931855;29;20398;-64
2022/11/27 06:32:33;;;;;;;;;;;6.10;99.90;;;;;;4932071;29;20401;-63
2022/11/27 06:35:00;;;;;;;;;;;6.10;99.90;;;;;;4948484;29;20342;-64
2022/11/27 06:37:28;;;;;;;;;;;6.10;99.90;;;;;;4932219;29;19927;-64
2022/11/27 06:39:55;;;;;;;;;;;6.20;99.90;;;;;;4932320;29;19927;-64
2022/11/27 06:42:22;;;;;;;;;;;6.20;99.90;;;;;;4932312;29;19982;-63
2022/11/27 06:44:49;;;;;;;;;;;6.20;99.90;;;;;;4930814;29;19927;-63
2022/11/27 06:47:15;;;;;;;;;;;6.20;99.90;;;;;;4929295;29;19974;-64
2022/11/27 06:49:42;;;;;;;;;;;6.20;99.90;;;;;;4946886;29;19927;-63
2022/11/27 06:52:09;;;;;;;;;;;6.20;99.90;;;;;;4932446;29;19934;-63
2022/11/27 06:54:37;;;;;;;;;;;6.30;99.90;;;;;;4930173;29;19934;-63
2022/11/27 06:57:04;;;;;;;;;;;6.40;99.90;;;;;;4929498;29;19935;-64
2022/11/27 06:59:31;;;;;;;;;;;6.40;99.90;;;;;;4931521;29;20349;-64
2022/11/27 07:01:57;;;;;;;;;;;6.40;99.90;;;;;;4928483;29;19931;-63
2022/11/27 07:04:24;;;;;;;;;;;6.40;99.90;;;;;;4929360;29;19931;-64
2022/11/27 07:06:53;;;;;;;;;;;6.40;99.90;;;;;;4928026;29;20367;-63
2022/11/27 07:09:20;;;;;;;;;;;6.50;99.90;;;;;;4929330;29;19947;-65
2022/11/27 07:11:48;;;;;;;;;;;6.50;99.90;;;;;;4931528;29;19942;-64
2022/11/27 07:14:15;;;;;;;;;;;6.60;99.90;;;;;;4931732;29;20449;-63
2022/11/27 07:16:42;;;;;;;;;;;6.60;99.90;;;;;;4932390;29;19938;-63
2022/11/27 07:19:10;;;;;;;;;;;6.60;99.90;;;;;;4931876;29;19930;-62
2022/11/27 07:21:37;;;;;;;;;;;6.60;99.90;;;;;;4931957;29;20317;-65
2022/11/27 07:24:04;;;;;;;;;;;6.60;99.90;;;;;;4930636;29;19931;-63
2022/11/27 07:26:31;;;;;;;;;;;6.70;99.90;;;;;;4931633;29;20390;-64
2022/11/27 07:28:59;;;;;;;;;;;6.70;99.90;;;;;;4930725;29;19927;-64
2022/11/27 07:31:28;;;;;;;;;;;6.80;99.90;;;;;;4947074;29;19927;-63
2022/11/27 07:33:54;;;;;;;;;;;6.70;99.90;;;;;;4925116;29;19959;-64
2022/11/27 07:36:22;;;;;;;;;;;6.70;99.90;;;;;;4947158;29;19991;-63
2022/11/27 07:38:49;;;;;;;;;;;6.70;99.90;;;;;;4947254;28;19927;-62
2022/11/27 07:41:16;;;;;;;;;;;6.80;99.90;;;;;;4932533;29;19927;-63
2022/11/27 07:43:44;;;;;;;;;;;6.80;99.90;;;;;;4933851;29;19974;-63
2022/11/27 07:46:14;;;;;;;;;;;6.80;99.90;;;;;;4935494;29;19927;-63
2022/11/27 07:48:41;;;;;;;;;;;6.80;99.90;;;;;;4935644;29;19950;-64
2022/11/27 07:51:09;;;;;;;;;;;6.90;99.90;;;;;;4951412;29;19969;-63
2022/11/27 07:53:36;;;;;;;;;;;6.90;99.90;;;;;;4934678;29;19927;-63
2022/11/27 07:56:03;;;;;;;;;;;6.90;99.90;;;;;;4951636;28;19927;-64
2022/11/27 07:58:30;;;;;;;;;;;7.00;99.90;;;;;;4935122;29;19958;-63
2022/11/27 08:00:56;;;;;;;;;;;7.10;99.90;;;;;;4935744;29;19926;-63
2022/11/27 08:03:25;;;;;;;;;;;7.20;99.90;;;;;;4939062;29;19934;-64
2022/11/27 08:05:52;;;;;;;;;;;7.20;99.90;;;;;;4934864;29;19931;-64
2022/11/27 08:08:18;;;;;;;;;;;7.30;99.90;;;;;;4931012;29;19927;-64
2022/11/27 08:10:45;;;;;;;;;;;7.40;99.90;;;;;;4933619;29;19939;-63
2022/11/27 08:13:12;;;;;;;;;;;7.50;99.90;;;;;;4950696;29;19935;-64
2022/11/27 08:15:39;;;;;;;;;;;7.50;99.90;;;;;;4951703;29;20301;-64
2022/11/27 08:18:06;;;;;;;;;;;7.60;99.90;;;;;;4935874;29;19934;-64
2022/11/27 08:20:34;;;;;;;;;;;7.60;99.90;;;;;;4938176;29;19931;-64
2022/11/27 08:23:01;;;;;;;;;;;7.70;99.90;;;;;;4934872;29;19955;-64
2022/11/27 08:25:27;;;;;;;;;;;7.70;99.90;;;;;;4951373;29;19931;-64
2022/11/27 08:27:54;;;;;;;;;;;7.70;99.90;;;;;;4950992;29;19927;-64
2022/11/27 08:30:22;;;;;;;;;;;7.70;99.90;;;;;;4935348;29;19938;-63
2022/11/27 08:32:49;;;;;;;;;;;7.70;99.90;;;;;;4950239;29;19970;-63
2022/11/27 08:35:16;;;;;;;;;;;7.70;99.90;;;;;;4928492;29;19927;-64
2022/11/27 08:37:44;;;;;;;;;;;7.70;99.90;;;;;;4933587;29;20338;-64
2022/11/27 08:40:11;;;;;;;;;;;7.70;99.90;;;;;;4930791;29;19931;-64
2022/11/27 08:42:38;;;;;;;;;;;7.60;99.90;;;;;;4950149;29;20313;-65
2022/11/27 08:45:05;;;;;;;;;;;7.60;99.90;;;;;;4934614;29;19934;-64
2022/11/27 08:47:32;;;;;;;;;;;7.60;99.90;;;;;;4935045;29;19930;-63
2022/11/27 08:49:59;;;;;;;;;;;7.60;99.90;;;;;;4939936;29;19933;-65
2022/11/27 08:52:26;;;;;;;;;;;7.70;99.90;;;;;;4933655;29;19931;-64
2022/11/27 08:54:54;;;;;;;;;;;7.70;99.90;;;;;;4948838;28;19927;-63
2022/11/27 08:57:21;;;;;;;;;;;7.70;99.90;;;;;;4934999;29;19931;-64
2022/11/27 08:59:47;;;;;;;;;;;7.70;99.90;;;;;;4934461;29;19942;-62
2022/11/27 09:02:14;;;;;;;;;;;7.70;99.90;;;;;;4937503;29;20297;-64
2022/11/27 09:04:41;;;;;;;;;;;7.80;99.90;;;;;;4934414;29;19931;-62
2022/11/27 09:07:10;;;;;;;;;;;7.80;99.90;;;;;;4938997;29;19934;-64
2022/11/27 09:09:37;;;;;;;;;;;7.90;99.90;;;;;;4934055;29;19982;-63
2022/11/27 09:12:05;;;;;;;;;;;7.90;99.90;;;;;;4929828;29;19927;-65
2022/11/27 09:14:32;;;;;;;;;;;7.90;99.90;;;;;;4933927;29;19926;-65
2022/11/27 09:16:59;;;;;;;;;;;7.90;99.90;;;;;;4949739;29;19978;-64
2022/11/27 09:19:26;;;;;;;;;;;7.90;99.90;;;;;;4933900;29;19937;-65
2022/11/27 09:21:53;;;;;;;;;;;8.00;99.90;;;;;;4943595;29;19934;-64
2022/11/27 09:24:19;;;;;;;;;;;8.00;99.90;;;;;;4948374;28;19927;-64
2022/11/27 09:26:46;;;;;;;;;;;8.00;99.90;;;;;;4949577;29;19931;-64
2022/11/27 09:29:14;;;;;;;;;;;8.00;99.90;;;;;;4947148;29;20297;-65
2022/11/27 09:31:41;;;;;;;;;;;8.10;99.90;;;;;;4933551;29;19930;-64
2022/11/27 09:34:08;;;;;;;;;;;8.10;99.90;;;;;;4937133;29;20398;-64
2022/11/27 09:36:35;;;;;;;;;;;8.10;99.90;;;;;;4933116;29;19930;-64
2022/11/27 09:39:02;;;;;;;;;;;8.10;99.90;;;;;;4933286;29;19934;-65
2022/11/27 09:41:37;;;;;;;;;;;8.20;99.90;;;;;;4933407;29;19954;-70
2022/11/27 09:44:06;;;;;;;;;;;8.20;99.90;;;;;;4933541;29;19934;-72
2022/11/27 09:46:36;;;;;;;;;;;8.20;99.90;;;;;;4932505;29;19927;-72
2022/11/27 09:49:05;;;;;;;;;;;8.20;99.90;;;;;;4928420;29;19933;-71
2022/11/27 09:51:34;;;;;;;;;;;8.20;99.90;;;;;;4932762;29;19927;-67
2022/11/27 09:54:05;;;;;;;;;;;8.20;99.90;;;;;;4927362;29;20346;-70
2022/11/27 09:56:33;;;;;;;;;;;8.20;99.90;;;;;;4947025;29;19928;-72
2022/11/27 09:59:00;;;;;;;;;;;8.20;99.90;;;;;;4949088;29;19927;-68
2022/11/27 10:01:28;;;;;;;;;;;8.30;99.90;;;;;;4933484;29;19927;-66
2022/11/27 10:03:57;;;;;;;;;;;8.30;99.90;;;;;;4931557;29;19931;-64
2022/11/27 10:06:27;;;;;;;;;;;8.30;99.90;;;;;;4940905;29;19930;-65
2022/11/27 10:09:01;;;;;;;;;;;8.30;99.90;;;;;;4931573;29;19927;-65
2022/11/27 10:11:30;;;;;;;;;;;8.30;99.90;;;;;;4927456;29;19939;-63
2022/11/27 10:14:07;;;;;;;;;;;8.30;99.90;;;;;;4928534;29;19937;-64
2022/11/27 10:16:36;;;;;;;;;;;8.30;99.90;;;;;;4926108;29;19927;-64
2022/11/27 10:19:08;;;;;;;;;;;8.30;99.90;;;;;;4945540;29;20454;-64
2022/11/27 10:21:39;;;;;;;;;;;8.30;99.90;;;;;;4932092;29;19934;-64
2022/11/27 10:24:11;;;;;;;;;;;8.40;99.90;;;;;;4932464;29;19927;-64
2022/11/27 10:26:40;;;;;;;;;;;8.40;99.90;;;;;;4933366;29;19946;-64
2022/11/27 10:29:12;;;;;;;;;;;8.50;99.90;;;;;;4938241;29;19938;-64
2022/11/27 10:31:43;;;;;;;;;;;8.60;99.90;;;;;;4926442;29;20369;-62
2022/11/27 10:34:19;;;;;;;;;;;8.60;99.90;;;;;;4946000;28;19934;-62
2022/11/27 10:36:47;;;;;;;;;;;8.70;99.90;;;;;;4948536;29;19935;-64
2022/11/27 10:39:16;;;;;;;;;;;8.70;99.90;;;;;;4945632;29;20347;-64
2022/11/27 10:41:46;;;;;;;;;;;8.80;99.90;;;;;;4924623;29;19960;-63
2022/11/27 10:44:22;;;;;;;;;;;8.80;99.90;;;;;;4949404;29;19931;-63
2022/11/27 10:46:50;;;;;;;;;;;8.90;99.90;;;;;;4933320;29;19966;-64
2022/11/27 10:49:19;;;;;;;;;;;9.00;99.90;;;;;;4930986;29;19930;-63
2022/11/27 10:51:46;;;;;;;;;;;9.00;99.90;;;;;;4947487;29;20379;-63
2022/11/27 10:54:19;;;;;;;;;;;9.10;99.90;;;;;;4930186;29;20355;-64
2022/11/27 10:56:55;;;;;;;;;;;9.10;99.90;;;;;;4942721;29;20291;-64
2022/11/27 10:59:23;;;;;;;;;;;9.20;99.90;;;;;;4933089;29;20360;-64
2022/11/27 11:01:52;;;;;;;;;;;9.30;99.90;;;;;;4933341;29;19927;-64
2022/11/27 11:04:22;;;;;;;;;;;9.40;99.90;;;;;;4946295;28;19938;-64
2022/11/27 11:06:49;;;;;;;;;;;9.40;99.90;;;;;;4946418;29;19927;-64
2022/11/27 11:09:17;;;;;;;;;;;9.40;99.90;;;;;;4929860;29;20021;-64
2022/11/27 11:11:44;;;;;;;;;;;9.50;99.90;;;;;;4939953;29;20406;-64
2022/11/27 11:14:15;;;;;;;;;;;9.50;99.90;;;;;;4944760;29;19931;-68
2022/11/27 11:16:43;;;;;;;;;;;9.50;99.90;;;;;;4944414;29;19927;-61
2022/11/27 11:19:21;;;;;;;;;;;9.50;99.90;;;;;;4946354;28;19971;-63
2022/11/27 11:21:48;;;;;;;;;;;9.40;99.90;;;;;;4930085;29;19930;-74
2022/11/27 11:24:18;;;;;;;;;;;9.40;99.90;;;;;;4933229;29;19927;-73
2022/11/27 11:26:46;;;;;;;;;;;9.40;99.90;;;;;;4927563;29;20026;-70
2022/11/27 11:29:24;;;;;;;;;;;9.50;99.90;;;;;;4933138;29;20416;-66
2022/11/27 11:31:51;;;;;;;;;;;9.50;99.90;;;;;;4936191;29;19931;-70
2022/11/27 11:34:20;;;;;;;;;;;9.50;99.90;;;;;;4933043;29;19931;-67
2022/11/27 11:36:55;;;;;;;;;;;9.60;99.90;;;;;;4945648;29;19934;-69
2022/11/27 11:39:23;;;;;;;;;;;9.70;99.90;;;;;;4931507;29;20366;-73
2022/11/27 11:41:50;;;;;;;;;;;9.70;99.90;;;;;;4948145;29;19927;-67
2022/11/27 11:44:22;;;;;;;;;;;9.80;99.90;;;;;;4948893;28;19934;-66
2022/11/27 11:46:51;;;;;;;;;;;9.90;99.90;;;;;;4941353;29;19930;-66
2022/11/27 11:49:20;;;;;;;;;;;9.90;99.90;;;;;;4937988;29;19931;-66
2022/11/27 11:52:01;;;;;;;;;;;10.00;99.90;;;;;;4931485;29;19927;-67
2022/11/27 11:54:35;;;;;;;;;;;9.90;99.90;;;;;;4931828;28;19930;-67
2022/11/27 11:57:04;;;;;;;;;;;10.00;99.90;;;;;;4937365;29;19935;-67
2022/11/27 11:59:36;;;;;;;;;;;10.10;99.90;;;;;;4946141;29;19927;-65
2022/11/27 12:02:20;;;;;;;;;;;10.10;99.90;;;;;;4925517;29;19931;-65
2022/11/27 12:05:07;;;;;;;;;;;10.10;99.90;;;;;;4929620;29;19930;-64
2022/11/27 12:07:41;;;;;;;;;;;10.10;99.90;;;;;;4927218;29;20008;-65
2022/11/27 12:10:14;;;;;;;;;;;10.00;99.90;;;;;;4929698;29;19931;-63
2022/11/27 12:12:47;;;;;;;;;;;10.00;99.90;;;;;;4941862;28;19938;-65
2022/11/27 12:15:18;;;;;;;;;;;10.00;99.90;;;;;;4919074;29;19927;-65
2022/11/27 12:17:50;;;;;;;;;;;9.90;99.90;;;;;;4946706;29;20338;-65
2022/11/27 12:20:19;;;;;;;;;;;9.90;99.90;;;;;;4930770;29;19927;-63
2022/11/27 12:22:55;;;;;;;;;;;9.90;99.90;;;;;;4930716;29;19927;-64
2022/11/27 12:25:28;;;;;;;;;;;9.80;99.90;;;;;;4927912;29;19962;-63
2022/11/27 12:28:03;;;;;;;;;;;9.80;99.90;;;;;;4930939;29;19934;-64
2022/11/27 12:30:35;;;;;;;;;;;9.70;99.90;;;;;;4934487;29;19954;-64
2022/11/27 12:33:09;;;;;;;;;;;9.60;99.90;;;;;;4934160;29;19926;-65
2022/11/27 12:35:41;;;;;;;;;;;9.50;99.90;;;;;;4933969;29;19937;-64
2022/11/27 12:38:15;;;;;;;;;;;9.50;99.90;;;;;;4935324;29;19927;-65
2022/11/27 12:40:53;;;;;;;;;;;9.60;99.90;;;;;;4933544;29;20358;-65
2022/11/27 12:43:23;;;;;;;;;;;9.60;99.90;;;;;;4933301;29;19938;-64
2022/11/27 12:45:52;;;;;;;;;;;9.60;99.90;;;;;;4930254;29;19935;-65
2022/11/27 12:48:21;;;;;;;;;;;9.60;99.90;;;;;;4934970;29;19930;-64
2022/11/27 12:50:49;;;;;;;;;;;9.60;99.90;;;;;;4946692;28;19962;-65
2022/11/27 12:53:18;;;;;;;;;;;9.60;99.90;;;;;;4934173;29;19966;-66
2022/11/27 12:55:47;;;;;;;;;;;9.60;99.90;;;;;;4935500;29;20302;-64
2022/11/27 12:58:20;;;;;;;;;;;9.60;99.90;;;;;;4934513;29;19927;-65
2022/11/27 13:00:48;;;;;;;;;;;9.60;99.90;;;;;;4930341;29;19974;-64
2022/11/27 13:03:18;;;;;;;;;;;9.60;99.90;;;;;;4933472;29;19927;-64
2022/11/27 13:05:47;;;;;;;;;;;9.60;99.90;;;;;;4949208;29;19927;-64
2022/11/27 13:08:15;;;;;;;;;;;9.50;99.90;;;;;;4928449;29;19928;-63
2022/11/27 13:10:45;;;;;;;;;;;9.50;99.90;;;;;;4933062;29;19938;-64
2022/11/27 13:13:14;;;;;;;;;;;9.50;99.90;;;;;;4948511;29;19975;-64
2022/11/27 13:15:44;;;;;;;;;;;9.50;99.90;;;;;;4934051;29;19930;-64
2022/11/27 13:18:14;;;;;;;;;;;9.50;99.90;;;;;;4938717;29;19927;-65
2022/11/27 13:20:41;;;;;;;;;;;9.50;99.90;;;;;;4933261;29;19933;-65
2022/11/27 13:23:08;;;;;;;;;;;9.50;99.90;;;;;;4930570;29;19931;-64
2022/11/27 13:25:39;;;;;;;;;;;9.50;99.90;;;;;;4922539;29;19951;-64
2022/11/27 13:28:06;;;;;;;;;;;9.50;99.90;;;;;;4942720;29;19927;-64
2022/11/27 13:30:35;;;;;;;;;;;9.40;99.90;;;;;;4933318;29;19927;-63
2022/11/27 13:33:05;;;;;;;;;;;9.40;99.90;;;;;;4941735;29;19934;-65
2022/11/27 13:35:37;;;;;;;;;;;9.40;99.90;;;;;;4931641;29;19927;-64
2022/11/27 13:38:07;;;;;;;;;;;9.40;99.90;;;;;;4949044;28;19990;-65
2022/11/27 13:40:37;;;;;;;;;;;9.40;99.90;;;;;;4934549;29;19927;-64
2022/11/27 13:43:05;;;;;;;;;;;9.30;99.90;;;;;;4939467;29;19938;-64
2022/11/27 13:45:35;;;;;;;;;;;9.30;99.90;;;;;;4949505;29;19934;-65
2022/11/27 13:48:06;;;;;;;;;;;9.30;99.90;;;;;;4941344;29;19926;-65
2022/11/27 13:50:42;;;;;;;;;;;9.30;99.90;;;;;;4949127;29;19927;-65
2022/11/27 13:53:09;;;;;;;;;;;9.20;99.90;;;;;;4933138;29;19927;-65
2022/11/27 13:55:36;;;;;;;;;;;9.20;99.90;;;;;;4933272;29;19927;-65
2022/11/27 13:58:04;;;;;;;;;;;9.20;99.90;;;;;;4933315;29;19930;-65
2022/11/27 14:00:32;;;;;;;;;;;9.20;99.90;;;;;;4931573;29;19934;-64
2022/11/27 14:02:59;;;;;;;;;;;9.10;99.90;;;;;;4932280;29;19927;-65
2022/11/27 14:05:36;;;;;;;;;;;9.10;99.90;;;;;;4932837;29;19970;-65
2022/11/27 14:08:03;;;;;;;;;;;9.10;99.90;;;;;;4947479;29;20346;-71
2022/11/27 14:10:32;;;;;;;;;;;9.10;99.90;;;;;;4932589;29;19987;-64
2022/11/27 14:13:01;;;;;;;;;;;9.10;99.90;;;;;;4948706;29;19931;-63
2022/11/27 14:15:29;;;;;;;;;;;9.00;99.90;;;;;;4925881;29;19963;-64
2022/11/27 14:18:04;;;;;;;;;;;9.00;99.90;;;;;;4932745;29;20382;-64
2022/11/27 14:20:32;;;;;;;;;;;9.00;99.90;;;;;;4932802;29;19930;-64
2022/11/27 14:23:00;;;;;;;;;;;9.00;99.90;;;;;;4938677;29;19930;-64
2022/11/27 14:25:28;;;;;;;;;;;8.90;99.90;;;;;;4932681;29;19933;-66
2022/11/27 14:28:00;;;;;;;;;;;8.90;99.90;;;;;;4941714;29;19927;-65
2022/11/27 14:30:30;;;;;;;;;;;8.90;99.90;;;;;;4930751;29;20318;-64
2022/11/27 14:32:56;;;;;;;;;;;8.90;99.90;;;;;;4934159;29;19931;-64
2022/11/27 14:35:25;;;;;;;;;;;8.90;99.90;;;;;;4948462;28;19930;-63
2022/11/27 14:37:52;;;;;;;;;;;8.90;99.90;;;;;;4933052;29;19931;-64
2022/11/27 14:40:23;;;;;;;;;;;8.90;99.90;;;;;;4925721;29;19962;-64
2022/11/27 14:42:49;;;;;;;;;;;8.90;99.90;;;;;;4931978;29;19928;-64
2022/11/27 14:45:17;;;;;;;;;;;8.90;99.90;;;;;;4937883;28;19935;-65
2022/11/27 14:47:47;;;;;;;;;;;8.90;99.90;;;;;;4948326;29;19927;-65
2022/11/27 14:50:14;;;;;;;;;;;8.80;99.90;;;;;;4931997;29;19934;-64
2022/11/27 14:52:42;;;;;;;;;;;8.80;99.90;;;;;;4932340;29;20398;-65
2022/11/27 14:55:12;;;;;;;;;;;8.80;99.90;;;;;;4944836;28;19931;-64
2022/11/27 14:57:40;;;;;;;;;;;8.80;99.90;;;;;;4935854;29;19939;-64
2022/11/27 15:00:15;;;;;;;;;;;8.80;99.90;;;;;;4948105;29;19946;-64
2022/11/27 15:02:42;;;;;;;;;;;8.80;99.90;;;;;;4932326;29;19930;-65
2022/11/27 15:05:17;;;;;;;;;;;8.80;99.90;;;;;;4932391;29;20398;-64
2022/11/27 15:07:45;;;;;;;;;;;8.80;99.90;;;;;;4932584;29;19933;-64
2022/11/27 15:10:20;;;;;;;;;;;8.80;99.90;;;;;;4932104;29;19931;-64
2022/11/27 15:12:48;;;;;;;;;;;8.70;99.90;;;;;;4946340;29;20421;-64
2022/11/27 15:15:18;;;;;;;;;;;8.70;99.90;;;;;;4932142;29;19958;-64
2022/11/27 15:17:47;;;;;;;;;;;8.70;99.90;;;;;;4932251;29;19934;-64
2022/11/27 15:20:15;;;;;;;;;;;8.70;99.90;;;;;;4932233;29;19927;-64
2022/11/27 15:22:48;;;;;;;;;;;8.70;99.90;;;;;;4931629;29;19934;-64
2022/11/27 15:25:27;;;;;;;;;;;8.70;99.90;;;;;;4928439;29;19927;-66
2022/11/27 15:27:55;;;;;;;;;;;8.70;99.90;;;;;;4926013;29;19982;-64
2022/11/27 15:30:22;;;;;;;;;;;8.60;99.90;;;;;;4925493;29;20353;-64
2022/11/27 15:32:51;;;;;;;;;;;8.60;99.90;;;;;;4917787;29;19930;-65
2022/11/27 15:35:22;;;;;;;;;;;8.50;99.90;;;;;;4919833;29;20039;-64
2022/11/27 15:37:50;;;;;;;;;;;8.50;99.90;;;;;;4941268;29;19927;-64
2022/11/27 15:40:26;;;;;;;;;;;8.50;99.90;;;;;;4919351;29;19982;-71
2022/11/27 15:42:53;;;;;;;;;;;8.50;99.90;;;;;;4929311;29;19927;-68
2022/11/27 15:45:22;;;;;;;;;;;8.50;99.90;;;;;;4926820;29;19927;-66
2022/11/27 15:47:48;;;;;;;;;;;8.50;99.90;;;;;;4947876;29;19978;-67
2022/11/27 15:50:16;;;;;;;;;;;8.50;99.90;;;;;;4930526;29;20275;-65
2022/11/27 15:52:43;;;;;;;;;;;8.50;99.90;;;;;;4930811;29;20017;-65
2022/11/27 15:55:13;;;;;;;;;;;8.50;99.90;;;;;;4931856;29;19974;-59
2022/11/27 15:57:40;;;;;;;;;;;8.50;99.90;;;;;;4932310;29;19927;-67
2022/11/27 16:00:08;;;;;;;;;;;8.50;99.90;;;;;;4947459;28;20390;-70
2022/11/27 16:02:39;;;;;;;;;;;8.40;99.90;;;;;;4935572;29;19926;-64
2022/11/27 16:05:07;;;;;;;;;;;8.40;99.90;;;;;;4951150;28;19963;-64
2022/11/27 16:07:34;;;;;;;;;;;8.40;99.90;;;;;;4951417;29;19927;-65
2022/11/27 16:10:01;;;;;;;;;;;8.40;99.90;;;;;;4935404;29;19927;-67
2022/11/27 16:12:27;;;;;;;;;;;8.40;99.90;;;;;;4941756;29;19934;-65
2022/11/27 16:14:54;;;;;;;;;;;8.30;99.90;;;;;;4948055;28;19927;-64
2022/11/27 16:17:21;;;;;;;;;;;8.30;99.90;;;;;;4931365;29;19927;-65
2022/11/27 16:19:49;;;;;;;;;;;8.30;99.90;;;;;;4951105;29;19931;-68
2022/11/27 16:22:16;;;;;;;;;;;8.30;99.90;;;;;;4950715;29;19931;-69
2022/11/27 16:24:43;;;;;;;;;;;8.30;99.90;;;;;;4949221;29;19942;-70
2022/11/27 16:27:10;;;;;;;;;;;8.30;99.90;;;;;;4930001;29;20310;-71
2022/11/27 16:29:36;;;;;;;;;;;8.30;99.90;;;;;;4939598;29;19946;-74
2022/11/27 16:32:03;;;;;;;;;;;8.30;99.90;;;;;;4934492;29;19931;-65
2022/11/27 16:34:30;;;;;;;;;;;8.20;99.90;;;;;;4934212;29;20357;-64
2022/11/27 16:36:59;;;;;;;;;;;8.20;99.90;;;;;;4937602;29;19927;-65
2022/11/27 16:39:27;;;;;;;;;;;8.20;99.90;;;;;;4934041;29;19930;-64
2022/11/27 16:41:54;;;;;;;;;;;8.20;99.90;;;;;;4950295;29;20394;-64
2022/11/27 16:44:21;;;;;;;;;;;8.20;99.90;;;;;;4934621;29;19974;-65
2022/11/27 16:46:48;;;;;;;;;;;8.20;99.90;;;;;;4936948;29;19927;-64
2022/11/27 16:49:16;;;;;;;;;;;8.10;99.90;;;;;;4932955;29;20022;-64
2022/11/27 16:51:44;;;;;;;;;;;8.10;99.90;;;;;;4949273;29;20297;-64
2022/11/27 16:54:13;;;;;;;;;;;8.10;99.90;;;;;;4950151;28;19927;-64
2022/11/27 16:56:42;;;;;;;;;;;8.10;99.90;;;;;;4936238;29;19927;-65
2022/11/27 16:59:10;;;;;;;;;;;8.10;99.90;;;;;;4935674;29;19931;-64
2022/11/27 17:01:39;;;;;;;;;;;8.10;99.90;;;;;;4935513;29;19989;-63
2022/11/27 17:04:07;;;;;;;;;;;8.00;99.90;;;;;;4935802;29;19927;-63
2022/11/27 17:06:35;;;;;;;;;;;8.00;99.90;;;;;;4935720;29;19966;-64
2022/11/27 17:09:03;;;;;;;;;;;8.00;99.90;;;;;;4951217;29;20362;-64
2022/11/27 17:11:33;;;;;;;;;;;8.00;99.90;;;;;;4935254;29;19990;-75
2022/11/27 17:14:01;;;;;;;;;;;7.90;99.90;;;;;;4976914;23;21389;-68
2022/11/27 17:16:28;;;;;;;;;;;7.90;99.90;;;;;;4949760;28;19926;-70
2022/11/27 17:18:55;;;;;;;;;;;7.90;99.90;;;;;;4934459;28;19973;-67
2022/11/27 17:21:24;;;;;;;;;;;7.80;99.90;;;;;;4941037;28;19966;-66
2022/11/27 17:23:51;;;;;;;;;;;7.80;99.90;;;;;;4926859;29;19932;-68
2022/11/27 17:26:19;;;;;;;;;;;7.80;99.90;;;;;;4923376;29;19955;-66
2022/11/27 17:28:48;;;;;;;;;;;7.80;99.90;;;;;;4933322;29;20010;-69
2022/11/27 17:31:15;;;;;;;;;;;7.70;99.90;;;;;;4925295;29;19935;-69
2022/11/27 17:33:42;;;;;;;;;;;7.70;99.90;;;;;;4918924;29;19931;-69
2022/11/27 17:36:10;;;;;;;;;;;7.70;99.90;;;;;;4923598;29;19927;-66
2022/11/27 17:38:38;;;;;;;;;;;7.70;99.90;;;;;;4929654;29;20438;-69
2022/11/27 17:41:06;;;;;;;;;;;7.70;99.90;;;;;;4918309;29;19927;-67
2022/11/27 17:43:33;;;;;;;;;;;7.70;99.90;;;;;;4908671;29;20391;-67
2022/11/27 17:46:01;;;;;;;;;;;7.70;99.90;;;;;;4924525;29;19930;-66
2022/11/27 17:48:28;;;;;;;;;;;7.70;99.90;;;;;;4914557;29;20042;-66
2022/11/27 17:50:55;;;;;;;;;;;7.70;99.90;;;;;;4909772;29;19927;-65
2022/11/27 17:53:21;;;;;;;;;;;7.60;99.90;;;;;;4911298;29;19954;-66
2022/11/27 17:55:49;;;;;;;;;;;7.60;99.90;;;;;;4922707;29;19933;-66
2022/11/27 17:58:15;;;;;;;;;;;7.60;99.90;;;;;;4914593;29;19931;-65
2022/11/27 18:00:43;;;;;;;;;;;7.60;99.90;;;;;;4913009;29;19927;-66
2022/11/27 18:03:12;;;;;;;;;;;7.60;99.90;;;;;;4920923;29;19927;-65
2022/11/27 18:05:39;;;;;;;;;;;7.60;99.90;;;;;;4929022;29;20345;-66
2022/11/27 18:08:06;;;;;;;;;;;7.50;99.90;;;;;;4917425;29;19931;-65
2022/11/27 18:10:33;;;;;;;;;;;7.60;99.90;;;;;;4920358;29;19931;-66
2022/11/27 18:13:00;;;;;;;;;;;7.60;99.90;;;;;;4929677;29;19952;-65
2022/11/27 18:15:27;;;;;;;;;;;7.50;99.90;;;;;;4928525;29;19934;-65
2022/11/27 18:17:57;;;;;;;;;;;7.50;99.90;;;;;;4918732;29;20268;-64
2022/11/27 18:20:25;;;;;;;;;;;7.60;99.90;;;;;;4918051;29;19957;-65
2022/11/27 18:22:52;;;;;;;;;;;7.50;99.90;;;;;;4915187;28;19956;-66
2022/11/27 18:25:19;;;;;;;;;;;7.50;99.90;;;;;;4916869;29;19927;-65
2022/11/27 18:27:46;;;;;;;;;;;7.50;99.90;;;;;;4929651;29;19927;-65
2022/11/27 18:30:13;;;;;;;;;;;7.50;99.90;;;;;;4928741;29;19927;-65
2022/11/27 18:32:40;;;;;;;;;;;7.40;99.90;;;;;;4928142;29;19926;-64
2022/11/27 18:35:07;;;;;;;;;;;7.40;99.90;;;;;;4931086;29;19926;-65
2022/11/27 18:37:37;;;;;;;;;;;7.40;99.90;;;;;;4923644;29;19997;-66
2022/11/27 18:40:04;;;;;;;;;;;7.40;99.90;;;;;;4915677;29;19930;-65